Auckland, New Zealand
Current Conditions -  °F | °C
As of 6:00 PM on Tuesday 21 Oct 2014 (Local Time) from NZAA Reporting Station
Overcast Overcast  
Wind Chill: 15°   Ceiling: 2900
Heat Index: 15°   Visibility: 6mi
Dew Point: 12°   Wind: 6mph
Humidity: 82%   Direction: 140°SE
Pressure: 30.06"   Gusts: NA
Location:  36.85°S, 174.77°E
Report Text: NZAA 210600Z AUTO 14005KT 9999 OVC029/// 15/12 Q1018 NOSIG
Loading
Personal Weather Stations






























Interactive Weather Map
Tropical Storm Tracking
New forecast layout! Learn more

10-Day Weather Forecast

Advertisements
Track Severe Weather on mobile